createdAt,value
2022-11-27T00:02:44.739Z,2.17
2022-11-27T00:05:58.496Z,1.80
2022-11-27T00:09:07.995Z,1.80
2022-11-27T00:12:12.762Z,2.40
2022-11-27T00:15:18.712Z,2.00
2022-11-27T00:18:23.507Z,2.38
2022-11-27T00:21:32.784Z,2.65
2022-11-27T00:24:37.216Z,2.47
2022-11-27T00:27:41.738Z,1.75
2022-11-27T00:30:47.160Z,2.05
2022-11-27T00:33:58.619Z,2.28
2022-11-27T00:37:03.160Z,1.77
2022-11-27T00:40:08.197Z,2.38
2022-11-27T00:43:12.901Z,2.47
2022-11-27T00:46:26.639Z,2.38
2022-11-27T00:49:32.793Z,2.70
2022-11-27T00:52:37.525Z,2.20
2022-11-27T00:55:42.296Z,2.58
2022-11-27T00:58:47.713Z,3.13
2022-11-27T01:01:52.380Z,2.50
2022-11-27T01:04:56.956Z,2.75
2022-11-27T01:08:01.431Z,2.70
2022-11-27T01:11:06.464Z,2.50
2022-11-27T01:14:16.161Z,2.42
2022-11-27T01:17:20.825Z,2.90
2022-11-27T01:20:25.429Z,2.88
2022-11-27T01:23:30.313Z,3.40
2022-11-27T01:26:34.757Z,3.85
2022-11-27T01:29:39.503Z,2.58
2022-11-27T01:32:43.898Z,2.70
2022-11-27T01:36:01.695Z,2.67
2022-11-27T01:39:06.498Z,2.80
2022-11-27T01:42:13.784Z,2.80
2022-11-27T01:45:21.727Z,2.85
2022-11-27T01:48:26.053Z,2.47
2022-11-27T01:51:36.817Z,3.13
2022-11-27T01:54:57.694Z,2.80
2022-11-27T01:58:19.658Z,2.88
2022-11-27T02:01:26.071Z,2.75
2022-11-27T02:04:31.253Z,2.70
2022-11-27T02:07:36.316Z,3.42
2022-11-27T02:11:00.863Z,3.95
2022-11-27T02:14:17.302Z,3.47
2022-11-27T02:17:54.982Z,4.30
2022-11-27T02:21:22.764Z,4.45
2022-11-27T02:24:49.193Z,3.28
2022-11-27T02:28:37.231Z,3.63
2022-11-27T02:31:57.381Z,4.28
2022-11-27T02:35:19.834Z,4.03
2022-11-27T02:38:39.100Z,3.42
2022-11-27T02:41:55.021Z,3.50
2022-11-27T02:45:09.568Z,2.67
2022-11-27T02:48:20.109Z,4.32
2022-11-27T02:51:36.524Z,3.60
2022-11-27T02:54:43.331Z,3.00
2022-11-27T02:57:51.162Z,3.75
2022-11-27T03:00:56.815Z,3.90
2022-11-27T03:04:06.442Z,3.53
2022-11-27T03:07:22.784Z,3.63
2022-11-27T03:11:03.710Z,2.65
2022-11-27T03:14:10.251Z,3.67
2022-11-27T03:17:54.645Z,3.50
2022-11-27T03:21:27.261Z,4.68
2022-11-27T03:24:35.521Z,4.22
2022-11-27T03:28:03.774Z,2.50
2022-11-27T03:31:08.324Z,3.05
2022-11-27T03:34:13.144Z,2.53
2022-11-27T03:37:18.111Z,3.42
2022-11-27T03:40:30.456Z,5.15
2022-11-27T03:43:48.849Z,3.60
2022-11-27T03:47:39.179Z,3.35
2022-11-27T03:50:58.075Z,3.55
2022-11-27T03:54:38.791Z,3.05
2022-11-27T03:58:01.814Z,2.72
2022-11-27T04:01:11.111Z,3.95
2022-11-27T04:04:16.160Z,3.42
2022-11-27T04:07:20.867Z,3.15
2022-11-27T04:10:25.622Z,3.20
2022-11-27T04:13:30.168Z,3.28
2022-11-27T04:16:34.852Z,2.45
2022-11-27T04:19:39.808Z,2.80
2022-11-27T04:22:44.282Z,3.35
2022-11-27T04:25:49.862Z,3.42
2022-11-27T04:28:54.321Z,3.30
2022-11-27T04:31:58.728Z,3.08
2022-11-27T04:35:03.652Z,2.90
2022-11-27T04:38:08.331Z,2.60
2022-11-27T04:41:13.250Z,2.40
2022-11-27T04:44:17.719Z,2.08
2022-11-27T04:47:22.464Z,2.70
2022-11-27T04:50:27.159Z,2.20
2022-11-27T04:53:32.173Z,1.83
2022-11-27T04:56:36.762Z,2.47
2022-11-27T04:59:41.196Z,2.30
2022-11-27T05:02:45.802Z,2.40
2022-11-27T05:05:57.534Z,2.03
2022-11-27T05:09:02.350Z,2.65
2022-11-27T05:12:07.404Z,2.30
2022-11-27T05:15:12.038Z,2.08
2022-11-27T05:18:16.601Z,2.00
2022-11-27T05:21:21.436Z,2.72
2022-11-27T05:24:28.210Z,2.38
2022-11-27T05:27:32.439Z,2.40
2022-11-27T05:30:37.576Z,2.33
2022-11-27T05:33:42.120Z,1.98
2022-11-27T05:36:46.985Z,2.20
2022-11-27T05:39:51.470Z,2.30
2022-11-27T05:42:55.892Z,2.05
2022-11-27T05:46:09.229Z,2.30
2022-11-27T05:49:16.069Z,2.05
2022-11-27T05:52:20.566Z,3.05
2022-11-27T05:55:25.137Z,2.92
2022-11-27T05:58:30.235Z,3.75
2022-11-27T06:01:35.198Z,4.55
2022-11-27T06:04:40.032Z,4.18
2022-11-27T06:07:45.171Z,3.45
2022-11-27T06:10:50.225Z,3.03
2022-11-27T06:13:55.166Z,3.50
2022-11-27T06:16:59.879Z,3.13
2022-11-27T06:20:04.632Z,2.75
2022-11-27T06:23:09.019Z,3.03
2022-11-27T06:26:21.399Z,2.55
2022-11-27T06:29:25.693Z,2.63
2022-11-27T06:32:30.561Z,2.88
2022-11-27T06:35:34.904Z,2.58
2022-11-27T06:38:39.862Z,2.63
2022-11-27T06:41:44.659Z,3.40
2022-11-27T06:44:49.691Z,3.58
2022-11-27T06:47:54.159Z,3.00
2022-11-27T06:51:03.777Z,2.95
2022-11-27T06:54:08.313Z,2.95
2022-11-27T06:57:14.611Z,2.80
2022-11-27T07:00:19.797Z,3.50
2022-11-27T07:03:24.823Z,3.00
2022-11-27T07:06:29.448Z,2.92
2022-11-27T07:09:34.254Z,2.70
2022-11-27T07:12:38.514Z,3.78
2022-11-27T07:15:43.696Z,3.08
2022-11-27T07:18:52.078Z,2.90
2022-11-27T07:21:57.150Z,2.85
2022-11-27T07:25:01.697Z,2.72
2022-11-27T07:28:06.207Z,2.53
2022-11-27T07:31:13.126Z,2.65
2022-11-27T07:34:21.655Z,2.65
2022-11-27T07:37:26.850Z,2.85
2022-11-27T07:40:31.303Z,3.88
2022-11-27T07:43:37.423Z,2.90
2022-11-27T07:46:42.086Z,3.35
2022-11-27T07:49:46.948Z,2.63
2022-11-27T07:52:51.454Z,2.40
2022-11-27T07:56:00.281Z,3.42
2022-11-27T07:59:04.701Z,3.72
2022-11-27T08:02:13.435Z,3.40
2022-11-27T08:05:19.020Z,3.88
2022-11-27T08:08:23.677Z,4.82
2022-11-27T08:11:32.861Z,7.22
2022-11-27T08:14:38.388Z,6.60
2022-11-27T08:17:43.717Z,5.95
2022-11-27T08:20:48.383Z,5.90
2022-11-27T08:23:55.870Z,5.57
2022-11-27T08:27:01.562Z,5.97
2022-11-27T08:30:07.967Z,5.18
2022-11-27T08:33:15.621Z,4.20
2022-11-27T08:36:20.076Z,4.15
2022-11-27T08:39:26.714Z,3.22
2022-11-27T08:42:31.814Z,3.75
2022-11-27T08:45:40.326Z,3.83
2022-11-27T08:48:44.856Z,3.63
2022-11-27T08:51:49.577Z,3.60
2022-11-27T08:54:57.494Z,4.32
2022-11-27T08:58:03.946Z,3.90
2022-11-27T09:01:21.628Z,3.88
2022-11-27T09:04:26.409Z,5.15
2022-11-27T09:07:30.809Z,3.83
2022-11-27T09:10:36.553Z,4.30
2022-11-27T09:13:42.141Z,5.40
2022-11-27T09:16:47.128Z,7.65
2022-11-27T09:19:52.269Z,5.50
2022-11-27T09:22:56.578Z,4.25
2022-11-27T09:26:03.391Z,3.78
2022-11-27T09:29:07.741Z,3.42
2022-11-27T09:32:11.904Z,3.50
2022-11-27T09:35:16.437Z,3.50
2022-11-27T09:38:21.118Z,3.50
2022-11-27T09:41:47.609Z,6.32
2022-11-27T09:44:58.913Z,5.55
2022-11-27T09:48:07.176Z,5.57
2022-11-27T09:51:37.461Z,3.78
2022-11-27T09:54:57.025Z,3.17
2022-11-27T09:58:38.639Z,2.97
2022-11-27T10:01:49.284Z,3.10
2022-11-27T10:05:13.566Z,2.85
2022-11-27T10:08:33.368Z,2.88
2022-11-27T10:11:50.002Z,2.45
2022-11-27T10:15:33.643Z,3.28
2022-11-27T10:18:50.566Z,3.90
2022-11-27T10:22:40.037Z,3.97
2022-11-27T10:25:54.459Z,3.72
2022-11-27T10:32:54.584Z,5.30
2022-11-27T10:35:55.460Z,4.10
2022-11-27T10:39:01.343Z,5.65
2022-11-27T10:42:24.787Z,4.88
2022-11-27T10:45:53.315Z,7.47
2022-11-27T10:48:58.400Z,6.40
2022-11-27T10:52:03.133Z,5.57
2022-11-27T10:55:21.760Z,6.15
2022-11-27T10:58:58.063Z,4.78
2022-11-27T11:02:05.545Z,3.92
2022-11-27T11:08:48.756Z,5.22
2022-11-27T11:11:53.342Z,4.63
2022-11-27T11:15:00.434Z,3.42
2022-11-27T11:18:20.796Z,3.40
2022-11-27T11:21:45.944Z,3.03
2022-11-27T11:24:53.607Z,3.85
2022-11-27T11:27:58.762Z,3.85
2022-11-27T11:31:12.158Z,3.28
2022-11-27T11:34:30.025Z,3.13
2022-11-27T11:37:41.818Z,3.85
2022-11-27T11:41:00.621Z,4.40
2022-11-27T11:44:05.577Z,4.90
2022-11-27T11:47:18.938Z,4.10
2022-11-27T11:50:48.606Z,4.70
2022-11-27T11:54:21.490Z,3.80
2022-11-27T11:57:41.287Z,3.88
2022-11-27T12:04:44.362Z,2.97
2022-11-27T12:08:11.828Z,3.53
2022-11-27T12:11:57.770Z,4.18
2022-11-27T12:15:36.402Z,3.95
2022-11-27T12:19:36.645Z,5.80
2022-11-27T12:23:18.789Z,8.93
2022-11-27T12:26:38.990Z,4.93
2022-11-27T12:30:20.806Z,5.93
2022-11-27T12:33:44.142Z,4.30
2022-11-27T12:37:39.947Z,5.03
2022-11-27T12:40:53.745Z,5.50
2022-11-27T12:44:00.499Z,5.07
2022-11-27T12:47:38.682Z,7.47
2022-11-27T12:50:48.628Z,7.20
2022-11-27T12:54:06.199Z,6.65
2022-11-27T12:57:19.419Z,4.68
2022-11-27T13:00:26.837Z,4.53
2022-11-27T13:04:00.900Z,4.22
2022-11-27T13:07:23.236Z,6.57
2022-11-27T13:10:50.619Z,4.88
2022-11-27T13:14:12.188Z,3.78
2022-11-27T13:17:18.098Z,3.28
2022-11-27T13:20:34.416Z,2.88
2022-11-27T13:23:42.689Z,3.10
2022-11-27T13:27:06.689Z,3.55
2022-11-27T13:30:25.469Z,3.90
2022-11-27T13:33:44.612Z,3.70
2022-11-27T13:37:37.535Z,3.80
2022-11-27T13:40:52.642Z,4.38
2022-11-27T13:43:57.847Z,4.32
2022-11-27T13:47:13.140Z,4.22
2022-11-27T13:50:29.666Z,3.53
2022-11-27T13:53:45.496Z,4.50
2022-11-27T14:00:13.089Z,4.32
2022-11-27T14:03:27.393Z,4.03
2022-11-27T14:06:32.791Z,3.95
2022-11-27T14:09:53.058Z,3.75
2022-11-27T14:13:06.195Z,4.28
2022-11-27T14:16:36.983Z,4.13
2022-11-27T14:19:45.265Z,3.03
2022-11-27T14:23:13.148Z,5.40
2022-11-27T14:26:24.612Z,4.07
2022-11-27T14:29:30.743Z,3.60
2022-11-27T14:32:36.276Z,2.92
2022-11-27T14:35:41.539Z,3.30
2022-11-27T14:38:47.331Z,3.30
2022-11-27T14:42:04.525Z,4.40
2022-11-27T14:45:16.016Z,5.75
2022-11-27T14:48:27.578Z,4.30
2022-11-27T14:51:43.151Z,3.50
2022-11-27T14:54:48.730Z,4.50
2022-11-27T14:57:53.388Z,4.63
2022-11-27T15:01:06.740Z,3.95
2022-11-27T15:04:35.093Z,3.33
2022-11-27T15:07:47.987Z,2.95
2022-11-27T15:10:57.969Z,2.50
2022-11-27T15:14:03.351Z,3.95
2022-11-27T15:17:19.136Z,3.53
2022-11-27T15:20:44.820Z,3.42
2022-11-27T15:23:50.368Z,2.85
2022-11-27T15:26:56.661Z,3.47
2022-11-27T15:30:17.193Z,3.85
2022-11-27T15:33:31.753Z,4.20
2022-11-27T15:36:41.903Z,3.40
2022-11-27T15:39:52.606Z,3.47
2022-11-27T15:42:57.670Z,4.05
2022-11-27T15:46:06.226Z,3.75
2022-11-27T15:49:15.451Z,3.88
2022-11-27T15:52:20.472Z,4.30
2022-11-27T15:55:25.591Z,3.88
2022-11-27T15:58:30.676Z,3.65
2022-11-27T16:01:35.623Z,5.03
2022-11-27T16:04:40.667Z,4.30
2022-11-27T16:07:45.681Z,6.15
2022-11-27T16:10:50.403Z,7.45
2022-11-27T16:13:55.388Z,5.00
2022-11-27T16:17:01.491Z,6.55
2022-11-27T16:20:07.350Z,6.25
2022-11-27T16:23:12.407Z,5.07
2022-11-27T16:26:17.685Z,4.72
2022-11-27T16:29:22.414Z,3.75
2022-11-27T16:32:27.263Z,4.20
2022-11-27T16:35:32.216Z,5.35
2022-11-27T16:38:37.671Z,3.28
2022-11-27T16:41:43.008Z,3.78
2022-11-27T16:44:47.963Z,4.63
2022-11-27T16:47:52.576Z,5.40
2022-11-27T16:51:16.411Z,4.50
2022-11-27T16:54:21.125Z,5.30
2022-11-27T16:57:26.171Z,5.22
2022-11-27T17:00:30.863Z,5.75
2022-11-27T17:03:37.276Z,4.20
2022-11-27T17:06:42.009Z,3.70
2022-11-27T17:09:47.160Z,3.72
2022-11-27T17:12:52.103Z,3.63
2022-11-27T17:16:00.355Z,4.07
2022-11-27T17:19:05.450Z,4.60
2022-11-27T17:22:10.466Z,5.13
2022-11-27T17:25:15.984Z,4.47
2022-11-27T17:28:24.290Z,3.80
2022-11-27T17:31:37.031Z,3.58
2022-11-27T17:34:42.126Z,3.13
2022-11-27T17:37:47.098Z,2.83
2022-11-27T17:40:52.787Z,2.80
2022-11-27T17:43:57.857Z,2.88
2022-11-27T17:47:02.453Z,3.53
2022-11-27T17:50:08.152Z,2.97
2022-11-27T17:53:14.146Z,2.10
2022-11-27T17:56:20.951Z,2.80
2022-11-27T17:59:26.894Z,3.13
2022-11-27T18:02:32.382Z,2.60
2022-11-27T18:05:38.954Z,2.55
2022-11-27T18:08:45.198Z,2.60
2022-11-27T18:11:52.361Z,2.90
2022-11-27T18:15:01.480Z,2.90
2022-11-27T18:18:07.707Z,3.22
2022-11-27T18:21:18.903Z,4.13
2022-11-27T18:24:24.702Z,4.20
2022-11-27T18:27:30.213Z,4.07
2022-11-27T18:30:35.466Z,3.38
2022-11-27T18:33:41.018Z,3.30
2022-11-27T18:36:46.127Z,3.35
2022-11-27T18:39:51.501Z,3.65
2022-11-27T18:42:55.934Z,3.45
2022-11-27T18:46:01.298Z,4.05
2022-11-27T18:49:06.505Z,5.82
2022-11-27T18:52:12.508Z,4.00
2022-11-27T18:55:17.194Z,4.30
2022-11-27T18:58:21.995Z,4.22
2022-11-27T19:01:29.476Z,4.35
2022-11-27T19:04:37.578Z,4.72
2022-11-27T19:07:42.499Z,4.82
2022-11-27T19:10:47.457Z,4.57
2022-11-27T19:13:55.579Z,3.97
2022-11-27T19:17:01.139Z,3.90
2022-11-27T19:20:07.923Z,4.18
2022-11-27T19:23:15.522Z,3.30
2022-11-27T19:26:23.580Z,5.40
2022-11-27T19:29:28.630Z,3.70
2022-11-27T19:32:33.374Z,3.88
2022-11-27T19:35:39.332Z,3.20
2022-11-27T19:38:43.757Z,4.97
2022-11-27T19:41:48.747Z,4.30
2022-11-27T19:44:55.833Z,4.72
2022-11-27T19:48:00.116Z,4.93
2022-11-27T19:51:04.845Z,3.25
2022-11-27T19:54:13.266Z,3.30
2022-11-27T19:57:17.864Z,3.53
2022-11-27T20:00:22.512Z,3.17
2022-11-27T20:03:27.278Z,2.80
2022-11-27T20:06:32.183Z,4.72
2022-11-27T20:09:36.802Z,3.83
2022-11-27T20:12:42.081Z,4.80
2022-11-27T20:15:47.992Z,4.90
2022-11-27T20:18:52.869Z,4.00
2022-11-27T20:21:57.661Z,3.92
2022-11-27T20:25:19.019Z,4.15
2022-11-27T20:28:24.768Z,4.03
2022-11-27T20:31:36.036Z,4.20
2022-11-27T20:34:41.572Z,5.70
2022-11-27T20:37:46.039Z,4.25
2022-11-27T20:40:51.466Z,4.55
2022-11-27T20:44:01.129Z,4.75
2022-11-27T20:47:09.038Z,5.03
2022-11-27T20:50:13.939Z,4.60
2022-11-27T20:53:19.802Z,4.10
2022-11-27T20:56:25.694Z,5.60
2022-11-27T20:59:30.967Z,6.30
2022-11-27T21:02:40.923Z,5.60
2022-11-27T21:05:48.115Z,5.00
2022-11-27T21:08:53.338Z,4.78
2022-11-27T21:11:58.314Z,4.55
2022-11-27T21:15:05.615Z,4.30
2022-11-27T21:18:10.464Z,3.90
2022-11-27T21:21:15.222Z,4.43
2022-11-27T21:24:22.289Z,4.13
2022-11-27T21:27:28.973Z,4.05
2022-11-27T21:30:34.125Z,5.15
2022-11-27T21:33:39.537Z,6.10
2022-11-27T21:36:44.767Z,4.40
2022-11-27T21:39:51.826Z,3.67
2022-11-27T21:42:56.662Z,3.50
2022-11-27T21:46:09.944Z,3.47
2022-11-27T21:49:20.330Z,3.38
2022-11-27T21:52:26.979Z,4.45
2022-11-27T21:55:33.461Z,3.30
2022-11-27T21:58:38.673Z,4.88
2022-11-27T22:01:45.666Z,4.32
2022-11-27T22:04:50.743Z,3.80
2022-11-27T22:07:55.402Z,5.72
2022-11-27T22:11:00.943Z,5.40
2022-11-27T22:14:08.312Z,4.10
2022-11-27T22:17:13.492Z,3.47
2022-11-27T22:20:18.781Z,3.80
2022-11-27T22:23:23.460Z,3.97
2022-11-27T22:26:28.665Z,3.13
2022-11-27T22:29:35.493Z,3.25
2022-11-27T22:32:41.041Z,3.42
2022-11-27T22:35:45.307Z,4.93
2022-11-27T22:38:53.325Z,5.57
2022-11-27T22:41:58.196Z,5.40
2022-11-27T22:45:02.784Z,5.63
2022-11-27T22:48:07.447Z,5.70
2022-11-27T22:51:12.267Z,4.65
2022-11-27T22:54:17.533Z,5.10
2022-11-27T22:57:22.854Z,4.90
2022-11-27T23:00:27.553Z,3.97
2022-11-27T23:03:33.225Z,4.45
2022-11-27T23:06:38.300Z,4.07
2022-11-27T23:09:43.181Z,4.10
2022-11-27T23:12:47.806Z,3.38
2022-11-27T23:15:51.930Z,3.22
2022-11-27T23:18:56.359Z,4.22
2022-11-27T23:22:01.129Z,5.22
2022-11-27T23:25:06.713Z,4.32
2022-11-27T23:28:11.387Z,5.20
2022-11-27T23:31:30.723Z,4.65
2022-11-27T23:34:35.836Z,4.90
2022-11-27T23:37:40.355Z,4.25
2022-11-27T23:40:45.121Z,3.15
2022-11-27T23:43:51.420Z,3.58
2022-11-27T23:46:55.889Z,3.08
2022-11-27T23:50:00.947Z,4.13
2022-11-27T23:53:05.517Z,3.90
2022-11-27T23:56:17.801Z,3.70
2022-11-27T23:59:22.255Z,4.70
